Home > Products > Valid Products > TAF

000
FTUS45 KTWC 230500
TAFOLS
TAF
KOLS 230520Z 2306/2406 VRB03KT P6SM FEW070 SCT250
     FM232000 28010KT P6SM SCT080 SCT250
     FM240300 VRB04KT P6SM SCT250=



000
FTUS45 KTWC 230500
TAFDUG
TAF
KDUG 230520Z 2306/2406 36005KT P6SM FEW070 SCT250
     FM232000 27010KT P6SM SCT080 SCT250
     FM240300 34005KT P6SM SCT250=



000
FTUS45 KTWC 230500
TAFOLS
TAF
KOLS 230520Z 2306/2406 VRB03KT P6SM FEW070 SCT250
     FM232000 28010KT P6SM SCT080 SCT250
     FM240300 VRB04KT P6SM SCT250=



000
FTUS45 KTWC 230500
TAFTUS
TAF
KTUS 230520Z 2306/2406 20005KT P6SM FEW080
     FM230800 15005KT P6SM SCT250
     FM232000 28008KT P6SM SCT090 SCT250
     FM240400 20006KT P6SM SCT250=



000
FTUS45 KTWC 222300
TAFOLS
TAF
KOLS 222327Z 2300/2324 27009KT P6SM VCSH SCT060
     FM230200 VRB03KT P6SM FEW070
     FM232000 28010KT P6SM SCT080 SCT250=



000
FTUS45 KTWC 222300
TAFOLS
TAF
KOLS 222327Z 2300/2324 27009KT P6SM VCSH SCT060
     FM230200 VRB03KT P6SM FEW070
     FM232000 28010KT P6SM SCT080 SCT250=



000
FTUS45 KTWC 222300
TAFTUS
TAF
KTUS 222327Z 2300/2324 26009KT P6SM VCSH SCT080
     FM230200 20005KT P6SM SCT090
     FM230800 15005KT P6SM SKC
     FM232000 28008KT P6SM SCT090 SCT250=



000
FTUS45 KTWC 222300
TAFDUG
TAF
KDUG 222327Z 2300/2324 28009KT P6SM VCSH SCT070 BKN130
      TEMPO 2300/2301 VRB15G25KT -TSRA BKN070CB
     FM230200 36005KT P6SM SCT070
     FM232000 27010KT P6SM SCT080 SCT250=



000
FTUS45 KTWC 222200 AAB
TAFDUG
TAF AMD
KDUG 222240Z 2223/2318 28009KT P6SM VCSH SCT070 BKN130
      TEMPO 2223/2301 VRB15G25KT -TSRA BKN070CB
     FM230300 36005KT P6SM FEW070=



000
FTUS45 KTWC 222200 AAA
TAFTUS
TAF AMD
KTUS 222232Z 2223/2318 28009KT P6SM VCSH SCT080
      TEMPO 2223/2224 VRB15G25KT -SHRA SCT060 BKN080
     FM230200 20005KT P6SM SCT090
     FM230800 15005KT P6SM SKC=



000
FTUS45 KTWC 221900 AAA
TAFDUG
TAF AMD
KDUG 221948Z 2220/2318 28009KT P6SM VCSH SCT070 BKN130
      TEMPO 2220/2222 VRB15G25KT -TSRA BKN070CB
     FM230300 36005KT P6SM FEW070=



000
FTUS45 KTWC 221700
TAFTUS
TAF
KTUS 221720Z 2218/2318 25008KT P6SM SCT070 SCT130
     FM222100 28009KT P6SM VCSH SCT080
     FM230200 20005KT P6SM SCT090
     FM230800 15005KT P6SM SKC=



000
FTUS45 KTWC 221700
TAFDUG
TAF
KDUG 221720Z 2218/2318 25008KT P6SM FEW060
     FM222000 28011KT P6SM VCSH SCT070
      TEMPO 2221/2301 VRB15G25KT -SHRA BKN070
     FM230300 36005KT P6SM FEW070=



000
FTUS45 KTWC 221700
TAFOLS
TAF
KOLS 221720Z 2218/2318 25008KT P6SM SCT050 SCT110
     FM222000 27009KT P6SM VCSH SCT060
     FM230200 VRB03KT P6SM FEW070=



000
FTUS45 KTWC 221100
TAFOLS
TAF
KOLS 221129Z 2212/2312 VRB03KT P6SM BKN120
     FM221500 16004KT P6SM SCT120
     FM221900 22008KT P6SM SCT080
     FM230100 20007KT P6SM SCT080 SCT130
     FM230400 VRB03KT P6SM SCT130=



000
FTUS45 KTWC 221100
TAFOLS
TAF
KOLS 221129Z 2212/2312 VRB03KT P6SM BKN120
     FM221500 16004KT P6SM SCT120
     FM221900 22008KT P6SM SCT080
     FM230100 20007KT P6SM SCT080 SCT130
     FM230400 VRB03KT P6SM SCT130=



000
FTUS45 KTWC 221100
TAFTUS
TAF
KTUS 221129Z 2212/2312 15005KT P6SM BKN140
     FM221500 17005KT P6SM SCT140
     FM222000 28008KT P6SM SCT090
     FM230200 22005KT P6SM SCT090 SCT140
     FM230800 16005KT P6SM FEW140=



000
FTUS45 KTWC 221100
TAFDUG
TAF
KDUG 221129Z 2212/2312 21005KT P6SM SCT070 BKN130
     FM221700 23007KT P6SM SCT070 SCT130
     FM222100 28010KT P6SM SCT070
     FM230200 32007KT P6SM SCT070 BKN120
     FM230600 03005KT P6SM FEW070 SCT120=



000
FTUS45 KTWC 220700 AAB
TAFOLS
TAF AMD
KOLS 220703Z 2207/2306 VRB03KT P6SM SCT050 OVC080
      TEMPO 2207/2208 4SM SHRA
     FM222000 24006KT P6SM VCSH SCT070
     FM230300 VRB04KT P6SM SCT100=



000
FTUS45 KTWC 220700 AAB
TAFOLS
TAF AMD
KOLS 220703Z 2207/2306 VRB03KT P6SM SCT050 OVC080
      TEMPO 2207/2208 4SM SHRA
     FM222000 24006KT P6SM VCSH SCT070
     FM230300 VRB04KT P6SM SCT100=



000
FTUS45 KTWC 220500 AAA
TAFOLS
TAF AMD
KOLS 220550Z 2206/2306 VRB03KT P6SM SCT050 OVC090
      TEMPO 2206/2207 -SHRA
     FM222000 24006KT P6SM VCSH SCT070
     FM230300 VRB04KT P6SM SCT100=



000
FTUS45 KTWC 220500 AAA
TAFOLS
TAF AMD
KOLS 220550Z 2206/2306 VRB03KT P6SM SCT050 OVC090
      TEMPO 2206/2207 -SHRA
     FM222000 24006KT P6SM VCSH SCT070
     FM230300 VRB04KT P6SM SCT100=



000
FTUS45 KTWC 220500
TAFOLS
TAF
KOLS 220520Z 2206/2306 VRB03KT P6SM SCT120
     FM222000 24006KT P6SM VCSH SCT070
     FM230300 VRB04KT P6SM SCT100=



000
FTUS45 KTWC 220500
TAFTUS
TAF
KTUS 220520Z 2206/2306 15005KT P6SM SCT120
     FM221500 26006KT P6SM SCT100
     FM222200 30008KT P6SM SCT080=



000
FTUS45 KTWC 220500
TAFOLS
TAF
KOLS 220520Z 2206/2306 VRB03KT P6SM SCT120
     FM222000 24006KT P6SM VCSH SCT070
     FM230300 VRB04KT P6SM SCT100=



000
FTUS45 KTWC 220500
TAFDUG
TAF
KDUG 220520Z 2206/2306 33005KT P6SM BKN110
     FM221900 28008KT P6SM VCSH SCT060
     FM230300 30005KT P6SM SCT100=



000
FTUS45 KTWC 220100 AAB
TAFDUG
TAF AMD
KDUG 220129Z 2201/2224 30007KT P6SM SCT060 BKN090
     FM220600 02005KT P6SM SCT090 SCT150
     FM222100 28008KT P6SM VCSH SCT050=



000
FTUS45 KTWC 220000 AAA
TAFDUG
TAF AMD
KDUG 220015Z 2200/2224 30010KT P6SM VCSH SCT050 BKN090
      TEMPO 2200/2202 -TSRA SCT050CB
     FM220400 32007KT P6SM SCT060 BKN090
     FM220600 02005KT P6SM SCT090 SCT150
     FM222100 28008KT P6SM VCSH SCT050=



000
FTUS45 KTWC 212300
TAFOLS
TAF
KOLS 212320Z 2200/2224 34005KT P6SM VCSH SCT060 BKN100
     FM220600 VRB03KT P6SM SCT100 SCT200
     FM222100 28008KT P6SM VCSH SCT060=



000
FTUS45 KTWC 212300
TAFTUS
TAF
KTUS 212320Z 2200/2224 28008KT P6SM VCSH SCT060 OVC120
     FM220400 23007KT P6SM SCT050 BKN120
     FM220700 15006KT P6SM SCT050 BKN120
     FM221600 23004KT P6SM SCT080
     FM222100 30008KT P6SM VCSH SCT060=



000
FTUS45 KTWC 212300
TAFDUG
TAF
KDUG 212320Z 2200/2224 30010KT P6SM VCSH SCT050 BKN090
     FM220400 32007KT P6SM SCT050 BKN090
     FM220600 02005KT P6SM SCT090 SCT150
     FM222100 28008KT P6SM VCSH SCT050=



000
FTUS45 KTWC 212300
TAFOLS
TAF
KOLS 212320Z 2200/2224 34005KT P6SM VCSH SCT060 BKN100
     FM220600 VRB03KT P6SM SCT100 SCT200
     FM222100 28008KT P6SM VCSH SCT060=



000
FTUS45 KTWC 211900 AAB
TAFOLS
TAF AMD
KOLS 211947Z 2120/2218 28006KT P6SM VCTS SCT060CB OVC100
     FM212200 21008KT P6SM VCSH SCT060 OVC100
     FM220200 16005KT P6SM SCT060 BKN100
     FM220600 VRB03KT P6SM SCT100 SCT200=



000
FTUS45 KTWC 211900 AAB
TAFOLS
TAF AMD
KOLS 211947Z 2120/2218 28006KT P6SM VCTS SCT060CB OVC100
     FM212200 21008KT P6SM VCSH SCT060 OVC100
     FM220200 16005KT P6SM SCT060 BKN100
     FM220600 VRB03KT P6SM SCT100 SCT200=



000
FTUS45 KTWC 211900 AAA
TAFTUS
TAF AMD
KTUS 211916Z 2119/2218 30008KT P6SM VCSH SCT070 OVC120
     FM220300 23007KT P6SM SCT070 BKN120
     FM220600 15006KT P6SM SCT120 SCT200=



000
FTUS45 KTWC 211900 AAA
TAFOLS
TAF AMD
KOLS 211914Z 2119/2218 28006KT P6SM VCSH SCT060 OVC100
      TEMPO 2119/2123 5SM RA BR BKN060
     FM212300 21008KT P6SM VCSH SCT060 OVC100
     FM220200 16005KT P6SM SCT060 BKN100
     FM220600 VRB03KT P6SM SCT100 SCT200=



000
FTUS45 KTWC 211900 AAA
TAFOLS
TAF AMD
KOLS 211914Z 2119/2218 28006KT P6SM VCSH SCT060 OVC100
      TEMPO 2119/2123 5SM RA BR BKN060
     FM212300 21008KT P6SM VCSH SCT060 OVC100
     FM220200 16005KT P6SM SCT060 BKN100
     FM220600 VRB03KT P6SM SCT100 SCT200=



000
FTUS45 KTWC 211700
TAFTUS
TAF
KTUS 211732Z 2118/2218 18004KT P6SM SCT100 OVC150
     FM211900 30008KT P6SM SCT070 OVC120
     FM220300 23007KT P6SM SCT070 BKN120
     FM220600 15006KT P6SM SCT120 SCT200=



000
FTUS45 KTWC 211700
TAFOLS
TAF
KOLS 211732Z 2118/2218 28006KT P6SM VCSH SCT060 OVC100
     FM212300 21008KT P6SM VCSH SCT060 OVC100
     FM220200 16005KT P6SM SCT060 BKN100
     FM220600 VRB03KT P6SM SCT100 SCT200=



000
FTUS45 KTWC 211700
TAFDUG
TAF
KDUG 211732Z 2118/2218 23004KT P6SM SCT070
     FM212100 26009KT P6SM VCSH SCT050 BKN090
     FM220100 32007KT P6SM SCT050 BKN090
     FM220600 02005KT P6SM SCT090 SCT150=



000
FTUS45 KTWC 211700
TAFOLS
TAF
KOLS 211732Z 2118/2218 28006KT P6SM VCSH SCT060 OVC100
     FM212300 21008KT P6SM VCSH SCT060 OVC100
     FM220200 16005KT P6SM SCT060 BKN100
     FM220600 VRB03KT P6SM SCT100 SCT200=



000
FTUS45 KTWC 211600 AAA
TAFOLS
TAF AMD
KOLS 211632Z 2117/2212 VRB03KT P6SM SCT080 OVC120
      TEMPO 2117/2119 -SHRA
     FM211900 23007KT P6SM VCSH SCT060 OVC100
     FM212300 21008KT P6SM SCT060 OVC100
     FM220200 16005KT P6SM SCT060 BKN100
     FM220600 VRB03KT P6SM SCT100 SCT200=



000
FTUS45 KTWC 211600 AAA
TAFOLS
TAF AMD
KOLS 211632Z 2117/2212 VRB03KT P6SM SCT080 OVC120
      TEMPO 2117/2119 -SHRA
     FM211900 23007KT P6SM VCSH SCT060 OVC100
     FM212300 21008KT P6SM SCT060 OVC100
     FM220200 16005KT P6SM SCT060 BKN100
     FM220600 VRB03KT P6SM SCT100 SCT200=



000
FTUS45 KTWC 211100
TAFTUS
TAF
KTUS 211137Z 2112/2212 15007KT P6SM FEW120 OVC200
     FM211500 18004KT P6SM SCT100 OVC150
     FM211900 30008KT P6SM SCT070 OVC120
     FM220300 23007KT P6SM SCT070 BKN120
     FM220800 15006KT P6SM SCT120 SCT200=



000
FTUS45 KTWC 211100
TAFOLS
TAF
KOLS 211137Z 2112/2212 VRB03KT P6SM FEW120 BKN160
     FM211500 17005KT P6SM SCT080 OVC120
     FM211900 23007KT P6SM VCSH SCT060 OVC100
     FM212300 21008KT P6SM SCT060 OVC100
     FM220200 16005KT P6SM SCT060 BKN100
     FM220600 VRB03KT P6SM SCT100 SCT200=



000
FTUS45 KTWC 211100
TAFDUG
TAF
KDUG 211137Z 2112/2212 VRB04KT P6SM FEW110 BKN160
     FM211700 23006KT P6SM SCT070 OVC110
     FM212100 26009KT P6SM VCSH SCT050 OVC090
     FM220100 32007KT P6SM SCT050 BKN090
     FM220600 02005KT P6SM SCT090 BKN160=



000
FTUS45 KTWC 210500
TAFOLS
TAF
KOLS 210520Z 2106/2206 VRB03KT P6SM SCT120 BKN200
     FM211400 20006KT P6SM BKN100 OVC150
     FM211900 24009KT P6SM VCSH SCT060 OVC100
     FM212300 27008KT P6SM BKN100 BKN200
     FM220400 VRB04KT P6SM SCT120 BKN200=



000
FTUS45 KTWC 210500
TAFOLS
TAF
KOLS 210520Z 2106/2206 VRB03KT P6SM SCT120 BKN200
     FM211400 20006KT P6SM BKN100 OVC150
     FM211900 24009KT P6SM VCSH SCT060 OVC100
     FM212300 27008KT P6SM BKN100 BKN200
     FM220400 VRB04KT P6SM SCT120 BKN200=



000
FTUS45 KTWC 210500
TAFTUS
TAF
KTUS 210520Z 2106/2206 15006KT P6SM SCT120 BKN200
     FM211400 VRB03KT P6SM BKN110 OVC150
     FM211900 28007KT P6SM VCSH SCT070 OVC100
     FM212300 33008KT P6SM BKN120 BKN140
     FM220400 16006KT P6SM SCT150 BKN200=



000
FTUS45 KTWC 210500
TAFDUG
TAF
KDUG 210520Z 2106/2206 VRB04KT P6SM SCT120 SCT200
     FM211800 23007KT P6SM SCT080 BKN120
     FM220100 33006KT P6SM BKN080 OVC110
     FM220400 VRB04KT P6SM SCT120 BKN200=



000
FTUS45 KTWC 202300
TAFOLS
TAF
KOLS 202332Z 2100/2124 13005KT P6SM VCSH SCT060 BKN080
     FM210400 VRB03KT P6SM SCT110 BKN200
     FM211900 15005KT P6SM SCT120 BKN200=



000
FTUS45 KTWC 202300
TAFDUG
TAF
KDUG 202332Z 2100/2124 32007G15KT P6SM VCSH SCT060 BKN110
     FM210200 32007KT P6SM SCT060 BKN110
     FM210500 34006KT P6SM SCT110 BKN200
     FM211900 27007KT P6SM SCT120 BKN200=



000
FTUS45 KTWC 202300
TAFOLS
TAF
KOLS 202332Z 2100/2124 13005KT P6SM VCSH SCT060 BKN080
     FM210400 VRB03KT P6SM SCT110 BKN200
     FM211900 15005KT P6SM SCT120 BKN200=



000
FTUS45 KTWC 202300
TAFTUS
TAF
KTUS 202332Z 2100/2124 22007KT P6SM SCT080 SCT140
     FM210200 20007KT P6SM SCT080 BKN140
     FM210500 15006KT P6SM SCT120 BKN200
     FM211900 30007KT P6SM SCT150 BKN200=



000
FTUS45 KTWC 202100 AAA
TAFOLS
TAF AMD
KOLS 202154Z 2022/2118 23005KT P6SM VCTS SCT050CB BKN080
      TEMPO 2022/2024 VRB15G25KT 3SM TSRA SCT030CB BKN050
     FM210400 VRB03KT P6SM SCT110=



000
FTUS45 KTWC 202100 AAA
TAFOLS
TAF AMD
KOLS 202154Z 2022/2118 23005KT P6SM VCTS SCT050CB BKN080
      TEMPO 2022/2024 VRB15G25KT 3SM TSRA SCT030CB BKN050
     FM210400 VRB03KT P6SM SCT110=



000
FTUS45 KTWC 201700
TAFDUG
TAF
KDUG 201720Z 2018/2118 24004KT P6SM SCT050 SCT100
     FM202200 28007KT P6SM SCT050 BKN100
     FM210500 34006KT P6SM SCT050 SCT100=



000
FTUS45 KTWC 201700
TAFOLS
TAF
KOLS 201720Z 2018/2118 20005KT P6SM SCT070
     FM202200 23005KT P6SM VCSH SCT070 BKN110
     FM210400 VRB03KT P6SM SCT110=



000
FTUS45 KTWC 201700
TAFOLS
TAF
KOLS 201720Z 2018/2118 20005KT P6SM SCT070
     FM202200 23005KT P6SM VCSH SCT070 BKN110
     FM210400 VRB03KT P6SM SCT110=



000
FTUS45 KTWC 201700
TAFTUS
TAF
KTUS 201720Z 2018/2118 24005KT P6SM FEW080 SCT140
     FM210200 20006KT P6SM SCT080 BKN140
     FM210500 15006KT P6SM SCT140=



000
FTUS45 KTWC 201100
TAFOLS
TAF
KOLS 201130Z 2012/2112 VRB03KT P6SM FEW110
     FM201700 20005KT P6SM SCT070
     FM202200 23008KT P6SM SCT070 BKN110
     FM210400 VRB03KT P6SM SCT110=



000
FTUS45 KTWC 201100
TAFTUS
TAF
KTUS 201130Z 2012/2112 14008KT P6SM FEW140
     FM201800 24007KT P6SM SCT080 SCT140
     FM210200 20006KT P6SM SCT080 BKN140
     FM210500 15006KT P6SM SCT140=



000
FTUS45 KTWC 201100
TAFOLS
TAF
KOLS 201130Z 2012/2112 VRB03KT P6SM FEW110
     FM201700 20005KT P6SM SCT070
     FM202200 23008KT P6SM SCT070 BKN110
     FM210400 VRB03KT P6SM SCT110=



000
FTUS45 KTWC 201100
TAFDUG
TAF
KDUG 201130Z 2012/2112 15007KT P6SM BKN070
     FM201400 19006KT P6SM SCT070
     FM201700 24008KT P6SM SCT050 SCT100
     FM202200 28009KT P6SM SCT050 BKN100
     FM210500 34006KT P6SM SCT050 SCT100=



000
FTUS45 KTWC 201100 AAA
TAFDUG
TAF AMD
KDUG 201102Z 2011/2106 13006KT P6SM BKN005
     FM201400 14007KT P6SM SCT050
     FM202000 28009KT P6SM VCSH SCT060 BKN100
     FM210300 02005KT P6SM SCT060 BKN120=



    US Dept of Commerce
    National Oceanic and Atmospheric Administration
    National Weather Service
    1325 East West Highway
    Silver Spring, MD 20910
    Page Author: NWS Internet Services Team
Disclaimer
Information Quality
Credits
Glossary
Privacy Policy
Freedom of Information Act (FOIA)
About Us
Career Opportunities